To NAV CANADA Home Page Login to a new session Search on AWWS site Disclaimer Vers la page française équivalente Tips FAQ What's new on the site To the Forecasts and Observations / NOTAM section To "File a Flight Plan" website Publications and other links Update of the User's profile FIC Telephone Numbers My Weather Data Folder Route Weather Data Regional Weather Data Local Weather Data To the Forecasts and Observations / NOTAM section
Request Generated 10/19/2018 at 16:37:00 UTC . Weather information available at that time is displayed.

METAR/TAF

OTTAWA/GATINEAU/QC    

METAR CYND 191600Z 24012G20KT 15SM FEW210 12/03 A2989 RMK CI1 SLP125=
METAR CYND 191500Z 23010G16KT 15SM FEW210 10/02 A2992 RMK CI1 SLP136=
METAR CYND 191400Z 23008KT 15SM FEW210 07/01 A2995 RMK CI1 CI TR SLP146=

TAF CYND 191238Z 1913/2001 22008KT P6SM FEW220
BECMG 1914/1916 22012G25KT FEW030
FM192300 22012G22KT P6SM FEW030 OVC140
RMK NXT FCST BY 191800Z=
Your time UTC time
Weather data provided by Environment Canada and NAV CANADA